Portada
METAR-TAF:

METAR-TAF

Aeroports :

Maracaibo, Veneçuela

latitud: 10-34N, longitud: 071-44W, altitud: 66 m

Observació

L'informe es va fer fa 4 hores i 26 minuts, a les 12:00 UTC
Vent 4 kt del Oest/Nord-Oest
Temperatura 26°C
Humitat 94%
Pressió 1011 hPa
Visibilitat 10 km o més
Cel ennuvolat a una alçada de 1300 ft

METAR: SVMC 121200Z 29004KT 9999 BKN013 26/25 Q1011

Hora: 12:26 (16:26 UTC)

Pronòstic

L'informe es va fer fa 6 hores i 26 minuts, a les 10:00 UTC
Pronòstic vàlid del 12 a les 12 UTC al 13 a les 12 UTC
Vent 6 kt del Est
Visibilitat 10 km o més
Núvols disperses a una alçada de 1600 ft
Evolucionant progressivament
l' 12 a les 12 UTC al 12 a les 16 UTC
Vent 5 kt del Sud-Est
Visibilitat 10 km o més
Núvols disperses a una alçada de 1600 ft

TAF: SVMC 121000Z 1212/1312 10006KT 9999 SCT016 TX31/19Z TN24/08Z BECMG 1212/1216 14005KT 9999 SCT016

Observacions i pronòstics meteorològics de més de 4000 aeroports (METAR i TAF).

Les estacions disponibles són els punts grocs i vermells al mapa.

Posi el ratolí al punt desitjat per veure el nom de l'estació.

Feu clic per veure les observacions i els pronòstics meteorològics.

Per canviar el mapa: feu clic els botons verds amb una creu de color negre per apropar; al botó verd amb un guió per allunyar la imatge; o en les fletxes verdes per a mapes adjacents.


METAR-TAF: